sensor_id;sensor_type;location;lat;lon;timestamp;temperature;humidity
15656;DHT22;7928;43.614;1.456;2022-12-07T00:01:40;9.50;66.00
15656;DHT22;7928;43.614;1.456;2022-12-07T00:04:11;9.50;55.60
15656;DHT22;7928;43.614;1.456;2022-12-07T00:06:39;9.50;55.00
15656;DHT22;7928;43.614;1.456;2022-12-07T00:09:10;9.40;56.60
15656;DHT22;7928;43.614;1.456;2022-12-07T00:11:38;9.40;55.00
15656;DHT22;7928;43.614;1.456;2022-12-07T00:14:07;9.40;47.30
15656;DHT22;7928;43.614;1.456;2022-12-07T00:16:34;9.40;56.30
15656;DHT22;7928;43.614;1.456;2022-12-07T00:19:03;9.50;56.80
15656;DHT22;7928;43.614;1.456;2022-12-07T00:21:31;9.50;62.90
15656;DHT22;7928;43.614;1.456;2022-12-07T00:23:59;9.50;72.10
15656;DHT22;7928;43.614;1.456;2022-12-07T00:26:29;9.50;71.80
15656;DHT22;7928;43.614;1.456;2022-12-07T00:28:59;9.60;67.60
15656;DHT22;7928;43.614;1.456;2022-12-07T00:31:28;9.50;68.00
15656;DHT22;7928;43.614;1.456;2022-12-07T00:33:55;9.50;70.20
15656;DHT22;7928;43.614;1.456;2022-12-07T00:36:24;9.50;71.00
15656;DHT22;7928;43.614;1.456;2022-12-07T00:38:51;9.40;72.60
15656;DHT22;7928;43.614;1.456;2022-12-07T00:41:19;9.50;70.80
15656;DHT22;7928;43.614;1.456;2022-12-07T00:43:49;9.50;70.90
15656;DHT22;7928;43.614;1.456;2022-12-07T00:46:17;9.40;78.00
15656;DHT22;7928;43.614;1.456;2022-12-07T00:48:44;9.40;83.20
15656;DHT22;7928;43.614;1.456;2022-12-07T00:51:13;9.50;81.50
15656;DHT22;7928;43.614;1.456;2022-12-07T00:53:40;9.50;85.20
15656;DHT22;7928;43.614;1.456;2022-12-07T00:56:07;9.50;90.30
15656;DHT22;7928;43.614;1.456;2022-12-07T00:58:35;9.40;90.40
15656;DHT22;7928;43.614;1.456;2022-12-07T01:01:04;9.40;91.80
15656;DHT22;7928;43.614;1.456;2022-12-07T01:03:32;9.30;94.10
15656;DHT22;7928;43.614;1.456;2022-12-07T01:06:00;9.40;94.20
15656;DHT22;7928;43.614;1.456;2022-12-07T01:08:28;9.30;95.40
15656;DHT22;7928;43.614;1.456;2022-12-07T01:11:11;9.30;92.40
15656;DHT22;7928;43.614;1.456;2022-12-07T01:13:38;9.30;91.40
15656;DHT22;7928;43.614;1.456;2022-12-07T01:16:07;9.20;94.90
15656;DHT22;7928;43.614;1.456;2022-12-07T01:18:36;9.30;99.10
15656;DHT22;7928;43.614;1.456;2022-12-07T01:21:05;9.30;99.80
15656;DHT22;7928;43.614;1.456;2022-12-07T01:23:33;9.30;99.70
15656;DHT22;7928;43.614;1.456;2022-12-07T01:26:03;9.30;99.40
15656;DHT22;7928;43.614;1.456;2022-12-07T01:28:30;9.30;99.90
15656;DHT22;7928;43.614;1.456;2022-12-07T01:30:58;9.30;99.90
15656;DHT22;7928;43.614;1.456;2022-12-07T01:33:28;9.20;96.30
15656;DHT22;7928;43.614;1.456;2022-12-07T01:36:01;9.20;97.30
15656;DHT22;7928;43.614;1.456;2022-12-07T01:38:29;9.20;99.90
15656;DHT22;7928;43.614;1.456;2022-12-07T01:40:57;9.20;99.90
15656;DHT22;7928;43.614;1.456;2022-12-07T01:43:26;9.30;99.90
15656;DHT22;7928;43.614;1.456;2022-12-07T01:45:54;9.30;99.90
15656;DHT22;7928;43.614;1.456;2022-12-07T01:48:23;9.30;99.90
15656;DHT22;7928;43.614;1.456;2022-12-07T01:50:53;9.20;99.90
15656;DHT22;7928;43.614;1.456;2022-12-07T01:53:21;9.20;99.90
15656;DHT22;7928;43.614;1.456;2022-12-07T01:55:52;9.20;99.90
15656;DHT22;7928;43.614;1.456;2022-12-07T01:58:20;9.20;99.90
15656;DHT22;7928;43.614;1.456;2022-12-07T02:00:48;9.20;99.90
15656;DHT22;7928;43.614;1.456;2022-12-07T02:03:18;9.20;99.90
15656;DHT22;7928;43.614;1.456;2022-12-07T02:05:46;9.20;99.90
15656;DHT22;7928;43.614;1.456;2022-12-07T02:08:16;9.20;99.90
15656;DHT22;7928;43.614;1.456;2022-12-07T02:10:44;9.20;99.90
15656;DHT22;7928;43.614;1.456;2022-12-07T02:13:13;9.20;99.90
15656;DHT22;7928;43.614;1.456;2022-12-07T02:18:38;9.20;99.90
15656;DHT22;7928;43.614;1.456;2022-12-07T02:21:12;9.20;99.90
15656;DHT22;7928;43.614;1.456;2022-12-07T02:24:13;9.20;99.90
15656;DHT22;7928;43.614;1.456;2022-12-07T02:29:39;9.20;99.90
15656;DHT22;7928;43.614;1.456;2022-12-07T02:32:10;9.20;99.90
15656;DHT22;7928;43.614;1.456;2022-12-07T02:34:44;9.10;99.90
15656;DHT22;7928;43.614;1.456;2022-12-07T02:37:19;9.10;99.90
15656;DHT22;7928;43.614;1.456;2022-12-07T02:39:52;9.10;99.90
15656;DHT22;7928;43.614;1.456;2022-12-07T02:42:31;9.10;99.90
15656;DHT22;7928;43.614;1.456;2022-12-07T02:45:01;9.10;99.90
15656;DHT22;7928;43.614;1.456;2022-12-07T02:47:29;9.10;99.90
15656;DHT22;7928;43.614;1.456;2022-12-07T02:49:58;9.10;99.90
15656;DHT22;7928;43.614;1.456;2022-12-07T02:52:26;9.10;99.90
15656;DHT22;7928;43.614;1.456;2022-12-07T02:54:53;9.10;99.90
15656;DHT22;7928;43.614;1.456;2022-12-07T02:57:33;9.10;99.90
15656;DHT22;7928;43.614;1.456;2022-12-07T03:00:07;9.10;99.90
15656;DHT22;7928;43.614;1.456;2022-12-07T03:02:46;9.10;99.90
15656;DHT22;7928;43.614;1.456;2022-12-07T03:05:35;9.10;99.90
15656;DHT22;7928;43.614;1.456;2022-12-07T03:08:11;9.10;99.90
15656;DHT22;7928;43.614;1.456;2022-12-07T03:10:48;9.20;99.90
15656;DHT22;7928;43.614;1.456;2022-12-07T03:13:22;9.20;99.90
15656;DHT22;7928;43.614;1.456;2022-12-07T03:15:56;9.20;99.90
15656;DHT22;7928;43.614;1.456;2022-12-07T03:18:25;9.20;99.90
15656;DHT22;7928;43.614;1.456;2022-12-07T03:20:58;9.20;99.90
15656;DHT22;7928;43.614;1.456;2022-12-07T03:23:28;9.20;99.90
15656;DHT22;7928;43.614;1.456;2022-12-07T03:25:58;9.20;99.90
15656;DHT22;7928;43.614;1.456;2022-12-07T03:28:29;9.20;99.90
15656;DHT22;7928;43.614;1.456;2022-12-07T03:31:02;9.20;99.90
15656;DHT22;7928;43.614;1.456;2022-12-07T03:33:32;9.20;99.90
15656;DHT22;7928;43.614;1.456;2022-12-07T03:36:03;9.20;99.90
15656;DHT22;7928;43.614;1.456;2022-12-07T03:38:34;9.30;99.90
15656;DHT22;7928;43.614;1.456;2022-12-07T03:41:05;9.30;99.90
15656;DHT22;7928;43.614;1.456;2022-12-07T03:43:33;9.20;99.90
15656;DHT22;7928;43.614;1.456;2022-12-07T03:46:09;9.20;99.90
15656;DHT22;7928;43.614;1.456;2022-12-07T03:48:46;9.20;99.90
15656;DHT22;7928;43.614;1.456;2022-12-07T03:51:21;9.20;99.90
15656;DHT22;7928;43.614;1.456;2022-12-07T03:53:53;9.20;99.90
15656;DHT22;7928;43.614;1.456;2022-12-07T03:56:22;9.20;99.90
15656;DHT22;7928;43.614;1.456;2022-12-07T03:58:51;9.10;99.90
15656;DHT22;7928;43.614;1.456;2022-12-07T04:01:20;9.10;99.90
15656;DHT22;7928;43.614;1.456;2022-12-07T04:03:49;9.10;99.90
15656;DHT22;7928;43.614;1.456;2022-12-07T04:06:16;9.10;99.90
15656;DHT22;7928;43.614;1.456;2022-12-07T04:08:43;9.10;99.90
15656;DHT22;7928;43.614;1.456;2022-12-07T04:11:10;9.10;99.90
15656;DHT22;7928;43.614;1.456;2022-12-07T04:13:37;9.10;99.90
15656;DHT22;7928;43.614;1.456;2022-12-07T04:16:19;9.10;99.90
15656;DHT22;7928;43.614;1.456;2022-12-07T04:18:46;9.10;99.90
15656;DHT22;7928;43.614;1.456;2022-12-07T04:21:13;9.10;99.90
15656;DHT22;7928;43.614;1.456;2022-12-07T04:23:40;9.10;99.90
15656;DHT22;7928;43.614;1.456;2022-12-07T04:26:07;9.20;99.90
15656;DHT22;7928;43.614;1.456;2022-12-07T04:28:34;9.20;99.90
15656;DHT22;7928;43.614;1.456;2022-12-07T04:31:01;9.20;99.90
15656;DHT22;7928;43.614;1.456;2022-12-07T04:33:30;9.20;99.90
15656;DHT22;7928;43.614;1.456;2022-12-07T04:35:57;9.10;99.90
15656;DHT22;7928;43.614;1.456;2022-12-07T04:38:24;9.10;99.90
15656;DHT22;7928;43.614;1.456;2022-12-07T04:40:51;9.20;99.90
15656;DHT22;7928;43.614;1.456;2022-12-07T04:43:18;9.20;99.90
15656;DHT22;7928;43.614;1.456;2022-12-07T04:45:46;9.20;99.90
15656;DHT22;7928;43.614;1.456;2022-12-07T04:48:13;9.20;99.90
15656;DHT22;7928;43.614;1.456;2022-12-07T04:50:42;9.20;99.90
15656;DHT22;7928;43.614;1.456;2022-12-07T04:53:09;9.10;99.90
15656;DHT22;7928;43.614;1.456;2022-12-07T04:55:36;9.10;99.90
15656;DHT22;7928;43.614;1.456;2022-12-07T04:58:03;9.10;99.90
15656;DHT22;7928;43.614;1.456;2022-12-07T05:00:30;9.10;99.90
15656;DHT22;7928;43.614;1.456;2022-12-07T05:02:57;9.10;99.90
15656;DHT22;7928;43.614;1.456;2022-12-07T05:05:24;9.10;99.90
15656;DHT22;7928;43.614;1.456;2022-12-07T05:07:53;9.10;99.90
15656;DHT22;7928;43.614;1.456;2022-12-07T05:10:20;9.10;99.90
15656;DHT22;7928;43.614;1.456;2022-12-07T05:12:47;9.20;99.90
15656;DHT22;7928;43.614;1.456;2022-12-07T05:15:15;9.20;99.90
15656;DHT22;7928;43.614;1.456;2022-12-07T05:17:42;9.20;99.90
15656;DHT22;7928;43.614;1.456;2022-12-07T05:20:10;9.20;99.90
15656;DHT22;7928;43.614;1.456;2022-12-07T05:22:37;9.10;99.90
15656;DHT22;7928;43.614;1.456;2022-12-07T05:25:06;9.10;99.90
15656;DHT22;7928;43.614;1.456;2022-12-07T05:27:33;9.00;99.90
15656;DHT22;7928;43.614;1.456;2022-12-07T05:30:00;9.00;99.90
15656;DHT22;7928;43.614;1.456;2022-12-07T05:32:27;9.10;99.90
15656;DHT22;7928;43.614;1.456;2022-12-07T05:34:54;9.10;99.90
15656;DHT22;7928;43.614;1.456;2022-12-07T05:37:21;9.10;99.90
15656;DHT22;7928;43.614;1.456;2022-12-07T05:39:48;9.10;99.90
15656;DHT22;7928;43.614;1.456;2022-12-07T05:42:17;9.10;99.90
15656;DHT22;7928;43.614;1.456;2022-12-07T05:44:44;9.10;99.90
15656;DHT22;7928;43.614;1.456;2022-12-07T05:47:12;9.10;99.90
15656;DHT22;7928;43.614;1.456;2022-12-07T05:49:39;9.10;99.90
15656;DHT22;7928;43.614;1.456;2022-12-07T05:52:06;9.10;99.90
15656;DHT22;7928;43.614;1.456;2022-12-07T05:54:34;9.20;99.90
15656;DHT22;7928;43.614;1.456;2022-12-07T05:57:01;9.20;99.90
15656;DHT22;7928;43.614;1.456;2022-12-07T05:59:29;9.20;99.90
15656;DHT22;7928;43.614;1.456;2022-12-07T06:01:57;9.20;99.90
15656;DHT22;7928;43.614;1.456;2022-12-07T06:04:25;9.20;99.90
15656;DHT22;7928;43.614;1.456;2022-12-07T06:06:52;9.20;99.90
15656;DHT22;7928;43.614;1.456;2022-12-07T06:09:20;9.20;99.90
15656;DHT22;7928;43.614;1.456;2022-12-07T06:11:48;9.20;99.90
15656;DHT22;7928;43.614;1.456;2022-12-07T06:14:34;9.20;99.90
15656;DHT22;7928;43.614;1.456;2022-12-07T06:17:01;9.20;99.90
15656;DHT22;7928;43.614;1.456;2022-12-07T06:19:28;9.20;99.90
15656;DHT22;7928;43.614;1.456;2022-12-07T06:21:55;9.20;99.90
15656;DHT22;7928;43.614;1.456;2022-12-07T06:24:23;9.20;99.90
15656;DHT22;7928;43.614;1.456;2022-12-07T06:26:50;9.20;99.90
15656;DHT22;7928;43.614;1.456;2022-12-07T06:29:18;9.20;99.90
15656;DHT22;7928;43.614;1.456;2022-12-07T06:31:46;9.20;99.90
15656;DHT22;7928;43.614;1.456;2022-12-07T06:34:16;9.20;99.90
15656;DHT22;7928;43.614;1.456;2022-12-07T06:36:43;9.20;99.90
15656;DHT22;7928;43.614;1.456;2022-12-07T06:39:11;9.20;99.90
15656;DHT22;7928;43.614;1.456;2022-12-07T06:41:39;9.10;99.90
15656;DHT22;7928;43.614;1.456;2022-12-07T06:44:06;9.10;99.90
15656;DHT22;7928;43.614;1.456;2022-12-07T06:46:33;9.10;99.90
15656;DHT22;7928;43.614;1.456;2022-12-07T06:49:03;9.00;99.90
15656;DHT22;7928;43.614;1.456;2022-12-07T06:51:31;9.10;99.90
15656;DHT22;7928;43.614;1.456;2022-12-07T06:53:59;9.10;99.90
15656;DHT22;7928;43.614;1.456;2022-12-07T06:56:26;9.10;99.90
15656;DHT22;7928;43.614;1.456;2022-12-07T06:58:54;9.10;99.90
15656;DHT22;7928;43.614;1.456;2022-12-07T07:01:21;9.10;99.90
15656;DHT22;7928;43.614;1.456;2022-12-07T07:03:48;9.10;99.90
15656;DHT22;7928;43.614;1.456;2022-12-07T07:06:16;9.00;99.90
15656;DHT22;7928;43.614;1.456;2022-12-07T07:08:43;9.00;99.90
15656;DHT22;7928;43.614;1.456;2022-12-07T07:11:11;8.90;99.90
15656;DHT22;7928;43.614;1.456;2022-12-07T07:13:38;9.00;99.90
15656;DHT22;7928;43.614;1.456;2022-12-07T07:16:06;9.00;99.90
15656;DHT22;7928;43.614;1.456;2022-12-07T07:18:33;9.00;99.90
15656;DHT22;7928;43.614;1.456;2022-12-07T07:21:00;9.00;99.90
15656;DHT22;7928;43.614;1.456;2022-12-07T07:23:29;9.00;99.90
15656;DHT22;7928;43.614;1.456;2022-12-07T07:25:56;9.10;99.90
15656;DHT22;7928;43.614;1.456;2022-12-07T07:28:23;9.10;99.90
15656;DHT22;7928;43.614;1.456;2022-12-07T07:30:50;9.10;99.90
15656;DHT22;7928;43.614;1.456;2022-12-07T07:33:17;9.10;99.90
15656;DHT22;7928;43.614;1.456;2022-12-07T07:35:44;9.10;99.90
15656;DHT22;7928;43.614;1.456;2022-12-07T07:38:12;9.10;99.90
15656;DHT22;7928;43.614;1.456;2022-12-07T07:40:40;9.10;99.90
15656;DHT22;7928;43.614;1.456;2022-12-07T07:43:07;9.10;99.90
15656;DHT22;7928;43.614;1.456;2022-12-07T07:45:35;9.10;99.90
15656;DHT22;7928;43.614;1.456;2022-12-07T07:48:02;9.10;99.90
15656;DHT22;7928;43.614;1.456;2022-12-07T07:50:29;9.10;99.90
15656;DHT22;7928;43.614;1.456;2022-12-07T07:52:57;9.20;99.90
15656;DHT22;7928;43.614;1.456;2022-12-07T07:55:24;9.20;99.90
15656;DHT22;7928;43.614;1.456;2022-12-07T07:57:53;9.30;99.90
15656;DHT22;7928;43.614;1.456;2022-12-07T08:00:21;9.30;99.90
15656;DHT22;7928;43.614;1.456;2022-12-07T08:02:48;9.40;99.90
15656;DHT22;7928;43.614;1.456;2022-12-07T08:05:16;9.40;99.90
15656;DHT22;7928;43.614;1.456;2022-12-07T08:07:43;9.40;99.90
15656;DHT22;7928;43.614;1.456;2022-12-07T08:10:11;9.50;99.90
15656;DHT22;7928;43.614;1.456;2022-12-07T08:12:40;9.50;99.90
15656;DHT22;7928;43.614;1.456;2022-12-07T08:15:23;9.50;99.90
15656;DHT22;7928;43.614;1.456;2022-12-07T08:17:50;9.60;99.90
15656;DHT22;7928;43.614;1.456;2022-12-07T08:20:17;9.60;99.90
15656;DHT22;7928;43.614;1.456;2022-12-07T08:22:44;9.70;99.90
15656;DHT22;7928;43.614;1.456;2022-12-07T08:25:11;9.80;99.90
15656;DHT22;7928;43.614;1.456;2022-12-07T08:27:38;9.80;99.90
15656;DHT22;7928;43.614;1.456;2022-12-07T08:30:06;9.80;99.90
15656;DHT22;7928;43.614;1.456;2022-12-07T08:32:34;9.90;99.90
15656;DHT22;7928;43.614;1.456;2022-12-07T08:35:01;9.90;99.90
15656;DHT22;7928;43.614;1.456;2022-12-07T08:37:29;9.90;99.90
15656;DHT22;7928;43.614;1.456;2022-12-07T08:39:56;9.90;99.90
15656;DHT22;7928;43.614;1.456;2022-12-07T08:42:23;9.90;99.90
15656;DHT22;7928;43.614;1.456;2022-12-07T08:44:55;10.00;99.90
15656;DHT22;7928;43.614;1.456;2022-12-07T08:47:23;10.10;99.90
15656;DHT22;7928;43.614;1.456;2022-12-07T08:49:53;10.20;99.90
15656;DHT22;7928;43.614;1.456;2022-12-07T08:52:20;10.20;99.90
15656;DHT22;7928;43.614;1.456;2022-12-07T08:54:47;10.30;99.90
15656;DHT22;7928;43.614;1.456;2022-12-07T08:57:14;10.50;99.90
15656;DHT22;7928;43.614;1.456;2022-12-07T08:59:41;10.60;99.90
15656;DHT22;7928;43.614;1.456;2022-12-07T09:02:08;10.80;99.90
15656;DHT22;7928;43.614;1.456;2022-12-07T09:04:35;11.00;98.10
15656;DHT22;7928;43.614;1.456;2022-12-07T09:07:04;11.20;89.80
15656;DHT22;7928;43.614;1.456;2022-12-07T09:09:31;11.10;76.40
15656;DHT22;7928;43.614;1.456;2022-12-07T09:11:59;11.30;61.60
15656;DHT22;7928;43.614;1.456;2022-12-07T09:14:26;11.40;56.90
15656;DHT22;7928;43.614;1.456;2022-12-07T09:16:53;11.60;60.80
15656;DHT22;7928;43.614;1.456;2022-12-07T09:19:20;11.90;46.30
15656;DHT22;7928;43.614;1.456;2022-12-07T09:21:47;12.10;24.40
15656;DHT22;7928;43.614;1.456;2022-12-07T09:24:15;12.40;18.30
15656;DHT22;7928;43.614;1.456;2022-12-07T09:26:42;12.50;7.50
15656;DHT22;7928;43.614;1.456;2022-12-07T09:29:09;12.70;1.50
15656;DHT22;7928;43.614;1.456;2022-12-07T09:31:37;13.00;1.00
15656;DHT22;7928;43.614;1.456;2022-12-07T09:34:04;13.60;1.00
15656;DHT22;7928;43.614;1.456;2022-12-07T09:36:33;14.20;1.00
15656;DHT22;7928;43.614;1.456;2022-12-07T09:39:00;16.30;1.00
15656;DHT22;7928;43.614;1.456;2022-12-07T09:41:30;19.10;99.90
15656;DHT22;7928;43.614;1.456;2022-12-07T09:44:04;21.10;99.90
15656;DHT22;7928;43.614;1.456;2022-12-07T09:46:35;22.70;90.50
15656;DHT22;7928;43.614;1.456;2022-12-07T09:49:03;23.90;99.90
15656;DHT22;7928;43.614;1.456;2022-12-07T09:51:31;24.50;97.90
15656;DHT22;7928;43.614;1.456;2022-12-07T09:53:59;25.30;96.40
15656;DHT22;7928;43.614;1.456;2022-12-07T09:56:29;25.50;94.00
15656;DHT22;7928;43.614;1.456;2022-12-07T09:58:59;26.00;91.80
15656;DHT22;7928;43.614;1.456;2022-12-07T10:01:32;26.60;90.30
15656;DHT22;7928;43.614;1.456;2022-12-07T10:04:09;26.80;87.60
15656;DHT22;7928;43.614;1.456;2022-12-07T10:06:38;27.20;84.50
15656;DHT22;7928;43.614;1.456;2022-12-07T10:09:10;27.80;81.20
15656;DHT22;7928;43.614;1.456;2022-12-07T10:12:00;28.30;79.10
15656;DHT22;7928;43.614;1.456;2022-12-07T10:14:28;28.40;76.60
15656;DHT22;7928;43.614;1.456;2022-12-07T10:16:56;27.90;73.70
15656;DHT22;7928;43.614;1.456;2022-12-07T10:19:26;26.10;73.60
15656;DHT22;7928;43.614;1.456;2022-12-07T10:22:04;23.60;78.80
15656;DHT22;7928;43.614;1.456;2022-12-07T10:24:32;21.70;82.90
15656;DHT22;7928;43.614;1.456;2022-12-07T10:27:01;20.50;1.00
15656;DHT22;7928;43.614;1.456;2022-12-07T10:29:30;21.50;1.00
15656;DHT22;7928;43.614;1.456;2022-12-07T10:32:00;24.40;85.70
15656;DHT22;7928;43.614;1.456;2022-12-07T10:34:29;26.90;80.50
15656;DHT22;7928;43.614;1.456;2022-12-07T10:37:15;28.80;74.90
15656;DHT22;7928;43.614;1.456;2022-12-07T10:39:45;29.90;69.30
15656;DHT22;7928;43.614;1.456;2022-12-07T10:42:20;30.70;65.40
15656;DHT22;7928;43.614;1.456;2022-12-07T10:44:48;30.80;63.80
15656;DHT22;7928;43.614;1.456;2022-12-07T10:47:32;30.60;61.40
15656;DHT22;7928;43.614;1.456;2022-12-07T10:50:23;30.70;60.70
15656;DHT22;7928;43.614;1.456;2022-12-07T10:53:24;31.00;59.70
15656;DHT22;7928;43.614;1.456;2022-12-07T10:58:56;31.60;56.70
15656;DHT22;7928;43.614;1.456;2022-12-07T11:01:32;32.70;56.40
15656;DHT22;7928;43.614;1.456;2022-12-07T11:04:17;33.30;55.40
15656;DHT22;7928;43.614;1.456;2022-12-07T11:06:50;33.40;54.00
15656;DHT22;7928;43.614;1.456;2022-12-07T11:09:42;33.50;53.30
15656;DHT22;7928;43.614;1.456;2022-12-07T11:12:21;33.60;52.30
15656;DHT22;7928;43.614;1.456;2022-12-07T11:14:55;33.60;51.70
15656;DHT22;7928;43.614;1.456;2022-12-07T11:17:29;33.80;50.90
15656;DHT22;7928;43.614;1.456;2022-12-07T11:20:11;33.20;50.00
15656;DHT22;7928;43.614;1.456;2022-12-07T11:22:46;33.20;50.20
15656;DHT22;7928;43.614;1.456;2022-12-07T11:25:23;33.50;50.30
15656;DHT22;7928;43.614;1.456;2022-12-07T11:28:04;32.40;49.60
15656;DHT22;7928;43.614;1.456;2022-12-07T11:30:42;31.70;50.90
15656;DHT22;7928;43.614;1.456;2022-12-07T11:33:17;32.10;51.20
15656;DHT22;7928;43.614;1.456;2022-12-07T11:36:02;33.10;50.30
15656;DHT22;7928;43.614;1.456;2022-12-07T11:38:38;33.50;49.90
15656;DHT22;7928;43.614;1.456;2022-12-07T11:41:09;33.60;49.50
15656;DHT22;7928;43.614;1.456;2022-12-07T11:43:55;34.00;49.10
15656;DHT22;7928;43.614;1.456;2022-12-07T11:46:27;34.00;49.30
15656;DHT22;7928;43.614;1.456;2022-12-07T11:48:58;34.00;47.70
15656;DHT22;7928;43.614;1.456;2022-12-07T11:51:30;33.10;48.90
15656;DHT22;7928;43.614;1.456;2022-12-07T11:54:03;33.00;48.60
15656;DHT22;7928;43.614;1.456;2022-12-07T11:56:35;33.30;48.30
15656;DHT22;7928;43.614;1.456;2022-12-07T11:59:09;33.40;48.10
15656;DHT22;7928;43.614;1.456;2022-12-07T12:01:48;33.60;47.80
15656;DHT22;7928;43.614;1.456;2022-12-07T12:04:32;33.80;48.00
15656;DHT22;7928;43.614;1.456;2022-12-07T12:07:03;33.80;47.20
15656;DHT22;7928;43.614;1.456;2022-12-07T12:09:35;31.90;47.20
15656;DHT22;7928;43.614;1.456;2022-12-07T12:15:19;27.20;52.40
15656;DHT22;7928;43.614;1.456;2022-12-07T12:18:16;25.80;54.40
15656;DHT22;7928;43.614;1.456;2022-12-07T12:20:49;24.40;56.90
15656;DHT22;7928;43.614;1.456;2022-12-07T12:23:20;24.20;57.20
15656;DHT22;7928;43.614;1.456;2022-12-07T12:25:49;23.20;59.40
15656;DHT22;7928;43.614;1.456;2022-12-07T12:28:24;21.90;62.50
15656;DHT22;7928;43.614;1.456;2022-12-07T12:31:06;21.20;65.90
15656;DHT22;7928;43.614;1.456;2022-12-07T12:33:36;21.30;1.00
15656;DHT22;7928;43.614;1.456;2022-12-07T12:36:24;22.00;1.00
15656;DHT22;7928;43.614;1.456;2022-12-07T12:39:08;25.40;99.90
15656;DHT22;7928;43.614;1.456;2022-12-07T12:41:58;28.30;1.00
15656;DHT22;7928;43.614;1.456;2022-12-07T12:50:26;31.40;1.00
15656;DHT22;7928;43.614;1.456;2022-12-07T12:53:00;31.40;1.00
15656;DHT22;7928;43.614;1.456;2022-12-07T12:58:45;31.90;1.00
15656;DHT22;7928;43.614;1.456;2022-12-07T13:01:43;32.10;1.00
15656;DHT22;7928;43.614;1.456;2022-12-07T13:04:39;32.30;1.00
15656;DHT22;7928;43.614;1.456;2022-12-07T13:13:33;31.40;1.00
15656;DHT22;7928;43.614;1.456;2022-12-07T13:16:37;31.70;1.00
15656;DHT22;7928;43.614;1.456;2022-12-07T13:22:52;32.10;1.00
15656;DHT22;7928;43.614;1.456;2022-12-07T13:25:36;32.90;1.00
15656;DHT22;7928;43.614;1.456;2022-12-07T13:28:12;32.20;1.00
15656;DHT22;7928;43.614;1.456;2022-12-07T13:30:45;32.50;1.00
15656;DHT22;7928;43.614;1.456;2022-12-07T13:33:15;32.70;1.00
15656;DHT22;7928;43.614;1.456;2022-12-07T13:35:44;32.60;1.00
15656;DHT22;7928;43.614;1.456;2022-12-07T13:38:24;32.60;1.00
15656;DHT22;7928;43.614;1.456;2022-12-07T13:41:13;32.20;1.00
15656;DHT22;7928;43.614;1.456;2022-12-07T13:43:49;31.50;1.00
15656;DHT22;7928;43.614;1.456;2022-12-07T13:46:18;31.20;1.00
15656;DHT22;7928;43.614;1.456;2022-12-07T13:48:48;30.50;1.00
15656;DHT22;7928;43.614;1.456;2022-12-07T13:51:21;30.80;1.00
15656;DHT22;7928;43.614;1.456;2022-12-07T13:53:52;31.40;1.00
15656;DHT22;7928;43.614;1.456;2022-12-07T13:56:22;31.70;1.00
15656;DHT22;7928;43.614;1.456;2022-12-07T13:58:49;31.80;1.00
15656;DHT22;7928;43.614;1.456;2022-12-07T14:01:16;31.80;1.00
15656;DHT22;7928;43.614;1.456;2022-12-07T14:03:43;32.60;1.00
15656;DHT22;7928;43.614;1.456;2022-12-07T14:06:22;33.00;1.00
15656;DHT22;7928;43.614;1.456;2022-12-07T14:09:14;29.60;1.00
15656;DHT22;7928;43.614;1.456;2022-12-07T14:11:44;28.00;1.00
15656;DHT22;7928;43.614;1.456;2022-12-07T14:14:15;27.50;1.00
15656;DHT22;7928;43.614;1.456;2022-12-07T14:16:43;27.70;1.00
15656;DHT22;7928;43.614;1.456;2022-12-07T14:19:50;27.80;1.00
15656;DHT22;7928;43.614;1.456;2022-12-07T14:22:36;27.90;1.00
15656;DHT22;7928;43.614;1.456;2022-12-07T14:25:22;27.00;1.00
15656;DHT22;7928;43.614;1.456;2022-12-07T14:27:52;25.50;1.00
15656;DHT22;7928;43.614;1.456;2022-12-07T14:30:22;25.00;1.00
15656;DHT22;7928;43.614;1.456;2022-12-07T14:32:52;24.50;1.00
15656;DHT22;7928;43.614;1.456;2022-12-07T14:35:20;23.90;1.00
15656;DHT22;7928;43.614;1.456;2022-12-07T14:37:48;23.90;1.00
15656;DHT22;7928;43.614;1.456;2022-12-07T14:40:17;24.20;1.00
15656;DHT22;7928;43.614;1.456;2022-12-07T14:42:47;25.30;1.00
15656;DHT22;7928;43.614;1.456;2022-12-07T14:45:16;25.80;1.00
15656;DHT22;7928;43.614;1.456;2022-12-07T14:47:44;24.40;1.00
15656;DHT22;7928;43.614;1.456;2022-12-07T14:50:13;23.90;14.20
15656;DHT22;7928;43.614;1.456;2022-12-07T14:52:40;23.50;99.90
15656;DHT22;7928;43.614;1.456;2022-12-07T14:55:14;23.50;99.90
15656;DHT22;7928;43.614;1.456;2022-12-07T14:57:42;22.90;99.90
15656;DHT22;7928;43.614;1.456;2022-12-07T15:00:14;22.30;1.00
15656;DHT22;7928;43.614;1.456;2022-12-07T15:02:43;22.00;1.00
15656;DHT22;7928;43.614;1.456;2022-12-07T15:05:10;21.90;1.00
15656;DHT22;7928;43.614;1.456;2022-12-07T15:07:37;21.60;1.00
15656;DHT22;7928;43.614;1.456;2022-12-07T15:10:06;21.60;40.30
15656;DHT22;7928;43.614;1.456;2022-12-07T15:12:33;21.40;99.90
15656;DHT22;7928;43.614;1.456;2022-12-07T15:15:00;21.20;99.90
15656;DHT22;7928;43.614;1.456;2022-12-07T15:17:29;21.70;39.70
15656;DHT22;7928;43.614;1.456;2022-12-07T15:19:56;22.30;1.00
15656;DHT22;7928;43.614;1.456;2022-12-07T15:22:23;22.00;1.00
15656;DHT22;7928;43.614;1.456;2022-12-07T15:24:50;22.30;1.00
15656;DHT22;7928;43.614;1.456;2022-12-07T15:27:17;21.60;1.00
15656;DHT22;7928;43.614;1.456;2022-12-07T15:29:44;20.30;1.00
15656;DHT22;7928;43.614;1.456;2022-12-07T15:32:12;19.30;99.90
15656;DHT22;7928;43.614;1.456;2022-12-07T15:34:40;18.60;99.90
15656;DHT22;7928;43.614;1.456;2022-12-07T15:37:08;18.10;1.00
15656;DHT22;7928;43.614;1.456;2022-12-07T15:39:36;17.70;1.00
15656;DHT22;7928;43.614;1.456;2022-12-07T15:42:03;17.40;99.90
15656;DHT22;7928;43.614;1.456;2022-12-07T15:44:30;17.00;1.00
15656;DHT22;7928;43.614;1.456;2022-12-07T15:47:15;16.80;1.00
15656;DHT22;7928;43.614;1.456;2022-12-07T15:50:00;16.70;1.00
15656;DHT22;7928;43.614;1.456;2022-12-07T15:52:27;16.60;76.80
15656;DHT22;7928;43.614;1.456;2022-12-07T15:54:54;16.50;99.90
15656;DHT22;7928;43.614;1.456;2022-12-07T15:57:21;16.40;99.90
15656;DHT22;7928;43.614;1.456;2022-12-07T15:59:48;16.30;99.90
15656;DHT22;7928;43.614;1.456;2022-12-07T16:02:15;16.10;99.90
15656;DHT22;7928;43.614;1.456;2022-12-07T16:04:44;15.90;99.90
15656;DHT22;7928;43.614;1.456;2022-12-07T16:07:11;15.70;99.90
15656;DHT22;7928;43.614;1.456;2022-12-07T16:09:41;15.50;1.00
15656;DHT22;7928;43.614;1.456;2022-12-07T16:12:08;15.30;99.90
15656;DHT22;7928;43.614;1.456;2022-12-07T16:14:36;15.20;1.00
15656;DHT22;7928;43.614;1.456;2022-12-07T16:17:03;15.00;1.00
15656;DHT22;7928;43.614;1.456;2022-12-07T16:19:30;15.00;1.00
15656;DHT22;7928;43.614;1.456;2022-12-07T16:21:59;14.90;1.00
15656;DHT22;7928;43.614;1.456;2022-12-07T16:24:26;14.80;1.00
15656;DHT22;7928;43.614;1.456;2022-12-07T16:26:54;14.70;1.00
15656;DHT22;7928;43.614;1.456;2022-12-07T16:29:22;14.50;1.00
15656;DHT22;7928;43.614;1.456;2022-12-07T16:31:50;14.30;1.00
15656;DHT22;7928;43.614;1.456;2022-12-07T16:34:18;14.30;1.00
15656;DHT22;7928;43.614;1.456;2022-12-07T16:36:45;14.20;1.00
15656;DHT22;7928;43.614;1.456;2022-12-07T16:39:14;14.10;1.00
15656;DHT22;7928;43.614;1.456;2022-12-07T16:41:41;13.90;1.00
15656;DHT22;7928;43.614;1.456;2022-12-07T16:44:11;13.80;1.00
15656;DHT22;7928;43.614;1.456;2022-12-07T16:46:39;13.80;1.00
15656;DHT22;7928;43.614;1.456;2022-12-07T16:49:08;13.70;1.00
15656;DHT22;7928;43.614;1.456;2022-12-07T16:51:36;13.60;1.00